sensor_id;sensor_type;location;lat;lon;timestamp;temperature;humidity
54832;DHT22;40730;53.068;6.572;2023-04-03T00:01:27;2.20;99.90
54832;DHT22;40730;53.068;6.572;2023-04-03T00:03:53;2.20;99.90
54832;DHT22;40730;53.068;6.572;2023-04-03T00:06:20;2.10;99.90
54832;DHT22;40730;53.068;6.572;2023-04-03T00:08:46;2.10;99.90
54832;DHT22;40730;53.068;6.572;2023-04-03T00:11:12;2.10;99.90
54832;DHT22;40730;53.068;6.572;2023-04-03T00:13:38;2.00;99.90
54832;DHT22;40730;53.068;6.572;2023-04-03T00:16:04;2.00;99.90
54832;DHT22;40730;53.068;6.572;2023-04-03T00:18:30;2.00;99.90
54832;DHT22;40730;53.068;6.572;2023-04-03T00:20:55;1.90;99.90
54832;DHT22;40730;53.068;6.572;2023-04-03T00:23:21;1.90;99.90
54832;DHT22;40730;53.068;6.572;2023-04-03T00:25:49;1.90;99.90
54832;DHT22;40730;53.068;6.572;2023-04-03T00:28:15;1.80;99.90
54832;DHT22;40730;53.068;6.572;2023-04-03T00:30:41;1.80;99.90
54832;DHT22;40730;53.068;6.572;2023-04-03T00:33:07;1.70;99.90
54832;DHT22;40730;53.068;6.572;2023-04-03T00:35:34;1.70;99.90
54832;DHT22;40730;53.068;6.572;2023-04-03T00:38:00;1.70;99.90
54832;DHT22;40730;53.068;6.572;2023-04-03T00:40:27;1.60;99.90
54832;DHT22;40730;53.068;6.572;2023-04-03T00:42:57;1.60;99.90
54832;DHT22;40730;53.068;6.572;2023-04-03T00:45:34;1.50;99.90
54832;DHT22;40730;53.068;6.572;2023-04-03T00:48:03;1.50;99.90
54832;DHT22;40730;53.068;6.572;2023-04-03T00:50:31;1.40;99.90
54832;DHT22;40730;53.068;6.572;2023-04-03T00:52:58;1.30;99.90
54832;DHT22;40730;53.068;6.572;2023-04-03T00:55:24;1.30;99.90
54832;DHT22;40730;53.068;6.572;2023-04-03T00:57:51;1.30;99.90
54832;DHT22;40730;53.068;6.572;2023-04-03T01:00:19;1.30;99.90
54832;DHT22;40730;53.068;6.572;2023-04-03T01:02:45;1.30;99.90
54832;DHT22;40730;53.068;6.572;2023-04-03T01:05:11;1.20;99.90
54832;DHT22;40730;53.068;6.572;2023-04-03T01:07:38;1.20;99.90
54832;DHT22;40730;53.068;6.572;2023-04-03T01:10:08;1.10;99.90
54832;DHT22;40730;53.068;6.572;2023-04-03T01:12:39;1.10;99.90
54832;DHT22;40730;53.068;6.572;2023-04-03T01:15:16;1.10;99.90
54832;DHT22;40730;53.068;6.572;2023-04-03T01:17:49;1.10;99.90
54832;DHT22;40730;53.068;6.572;2023-04-03T01:25:46;1.00;99.90
54832;DHT22;40730;53.068;6.572;2023-04-03T01:33:43;1.00;99.90
54832;DHT22;40730;53.068;6.572;2023-04-03T01:36:10;1.00;99.90
54832;DHT22;40730;53.068;6.572;2023-04-03T01:38:38;1.00;99.90
54832;DHT22;40730;53.068;6.572;2023-04-03T01:41:04;0.90;99.90
54832;DHT22;40730;53.068;6.572;2023-04-03T01:43:29;0.90;99.90
54832;DHT22;40730;53.068;6.572;2023-04-03T01:45:55;0.80;99.90
54832;DHT22;40730;53.068;6.572;2023-04-03T01:48:21;0.80;99.90
54832;DHT22;40730;53.068;6.572;2023-04-03T01:50:46;0.80;99.90
54832;DHT22;40730;53.068;6.572;2023-04-03T01:53:12;0.80;99.90
54832;DHT22;40730;53.068;6.572;2023-04-03T01:55:38;0.80;99.90
54832;DHT22;40730;53.068;6.572;2023-04-03T01:58:04;0.70;99.90
54832;DHT22;40730;53.068;6.572;2023-04-03T02:00:29;0.70;99.90
54832;DHT22;40730;53.068;6.572;2023-04-03T02:02:56;0.60;99.90
54832;DHT22;40730;53.068;6.572;2023-04-03T02:05:22;0.60;99.90
54832;DHT22;40730;53.068;6.572;2023-04-03T02:07:47;0.60;99.90
54832;DHT22;40730;53.068;6.572;2023-04-03T02:10:13;0.60;99.90
54832;DHT22;40730;53.068;6.572;2023-04-03T02:12:39;0.50;99.90
54832;DHT22;40730;53.068;6.572;2023-04-03T02:15:05;0.50;99.90
54832;DHT22;40730;53.068;6.572;2023-04-03T02:17:31;0.50;99.90
54832;DHT22;40730;53.068;6.572;2023-04-03T02:19:57;0.50;99.90
54832;DHT22;40730;53.068;6.572;2023-04-03T02:22:23;0.50;99.90
54832;DHT22;40730;53.068;6.572;2023-04-03T02:24:48;0.50;99.90
54832;DHT22;40730;53.068;6.572;2023-04-03T02:27:14;0.50;99.90
54832;DHT22;40730;53.068;6.572;2023-04-03T02:29:40;0.40;99.90
54832;DHT22;40730;53.068;6.572;2023-04-03T02:32:05;0.40;99.90
54832;DHT22;40730;53.068;6.572;2023-04-03T02:34:31;0.40;99.90
54832;DHT22;40730;53.068;6.572;2023-04-03T02:36:56;0.40;99.90
54832;DHT22;40730;53.068;6.572;2023-04-03T02:39:22;0.40;99.90
54832;DHT22;40730;53.068;6.572;2023-04-03T02:41:47;0.30;99.90
54832;DHT22;40730;53.068;6.572;2023-04-03T02:44:13;0.30;99.90
54832;DHT22;40730;53.068;6.572;2023-04-03T02:46:39;0.30;99.90
54832;DHT22;40730;53.068;6.572;2023-04-03T02:49:04;0.30;99.90
54832;DHT22;40730;53.068;6.572;2023-04-03T02:51:31;0.30;99.90
54832;DHT22;40730;53.068;6.572;2023-04-03T02:53:56;0.20;99.90
54832;DHT22;40730;53.068;6.572;2023-04-03T02:56:22;0.20;99.90
54832;DHT22;40730;53.068;6.572;2023-04-03T02:58:48;0.20;99.90
54832;DHT22;40730;53.068;6.572;2023-04-03T03:01:14;0.20;99.90
54832;DHT22;40730;53.068;6.572;2023-04-03T03:03:39;0.20;99.90
54832;DHT22;40730;53.068;6.572;2023-04-03T03:06:11;0.20;99.90
54832;DHT22;40730;53.068;6.572;2023-04-03T03:08:38;0.10;99.90
54832;DHT22;40730;53.068;6.572;2023-04-03T03:11:04;0.00;99.90
54832;DHT22;40730;53.068;6.572;2023-04-03T03:13:31;0.00;99.90
54832;DHT22;40730;53.068;6.572;2023-04-03T03:15:57;0.00;99.90
54832;DHT22;40730;53.068;6.572;2023-04-03T03:18:22;0.00;99.90
54832;DHT22;40730;53.068;6.572;2023-04-03T03:20:55;-0.10;99.90
54832;DHT22;40730;53.068;6.572;2023-04-03T03:23:23;-0.10;99.90
54832;DHT22;40730;53.068;6.572;2023-04-03T03:25:49;-0.20;99.90
54832;DHT22;40730;53.068;6.572;2023-04-03T03:28:14;-0.20;99.90
54832;DHT22;40730;53.068;6.572;2023-04-03T03:30:40;-0.30;99.90
54832;DHT22;40730;53.068;6.572;2023-04-03T03:33:06;-0.30;99.90
54832;DHT22;40730;53.068;6.572;2023-04-03T03:35:32;-0.30;99.90
54832;DHT22;40730;53.068;6.572;2023-04-03T03:37:57;-0.30;99.90
54832;DHT22;40730;53.068;6.572;2023-04-03T03:40:23;-0.40;99.90
54832;DHT22;40730;53.068;6.572;2023-04-03T03:42:48;-0.40;99.90
54832;DHT22;40730;53.068;6.572;2023-04-03T03:45:14;-0.50;99.90
54832;DHT22;40730;53.068;6.572;2023-04-03T03:47:40;-0.50;99.90
54832;DHT22;40730;53.068;6.572;2023-04-03T03:50:06;-0.60;99.90
54832;DHT22;40730;53.068;6.572;2023-04-03T03:52:31;-0.60;99.90
54832;DHT22;40730;53.068;6.572;2023-04-03T03:54:57;-0.60;99.90
54832;DHT22;40730;53.068;6.572;2023-04-03T03:57:23;-0.60;99.90
54832;DHT22;40730;53.068;6.572;2023-04-03T03:59:48;-0.60;99.90
54832;DHT22;40730;53.068;6.572;2023-04-03T04:02:15;-0.60;99.90
54832;DHT22;40730;53.068;6.572;2023-04-03T04:04:41;-0.50;99.90
54832;DHT22;40730;53.068;6.572;2023-04-03T04:07:07;-0.50;99.90
54832;DHT22;40730;53.068;6.572;2023-04-03T04:09:33;-0.50;99.90
54832;DHT22;40730;53.068;6.572;2023-04-03T04:11:58;-0.60;99.90
54832;DHT22;40730;53.068;6.572;2023-04-03T04:14:24;-0.60;99.90
54832;DHT22;40730;53.068;6.572;2023-04-03T04:16:50;-0.60;99.90
54832;DHT22;40730;53.068;6.572;2023-04-03T04:19:15;-0.50;99.90
54832;DHT22;40730;53.068;6.572;2023-04-03T04:21:41;-0.60;99.90
54832;DHT22;40730;53.068;6.572;2023-04-03T04:24:07;-0.60;99.90
54832;DHT22;40730;53.068;6.572;2023-04-03T04:26:33;-0.60;99.90
54832;DHT22;40730;53.068;6.572;2023-04-03T04:28:59;-0.60;99.90
54832;DHT22;40730;53.068;6.572;2023-04-03T04:31:25;0.20;99.90
54832;DHT22;40730;53.068;6.572;2023-04-03T04:33:51;-0.60;99.90
54832;DHT22;40730;53.068;6.572;2023-04-03T04:36:16;-0.60;99.90
54832;DHT22;40730;53.068;6.572;2023-04-03T04:38:42;-0.70;99.90
54832;DHT22;40730;53.068;6.572;2023-04-03T04:41:08;-0.70;99.90
54832;DHT22;40730;53.068;6.572;2023-04-03T04:43:34;-0.70;99.90
54832;DHT22;40730;53.068;6.572;2023-04-03T04:46:04;-0.70;99.90
54832;DHT22;40730;53.068;6.572;2023-04-03T04:48:30;-0.80;99.90
54832;DHT22;40730;53.068;6.572;2023-04-03T04:50:56;-0.80;99.90
54832;DHT22;40730;53.068;6.572;2023-04-03T04:53:22;-0.80;99.90
54832;DHT22;40730;53.068;6.572;2023-04-03T04:55:47;-0.70;99.90
54832;DHT22;40730;53.068;6.572;2023-04-03T04:58:13;-0.80;99.90
54832;DHT22;40730;53.068;6.572;2023-04-03T05:00:39;-0.80;99.90
54832;DHT22;40730;53.068;6.572;2023-04-03T05:03:05;-0.80;99.90
54832;DHT22;40730;53.068;6.572;2023-04-03T05:05:30;-0.70;99.90
54832;DHT22;40730;53.068;6.572;2023-04-03T05:07:56;-0.70;99.90
54832;DHT22;40730;53.068;6.572;2023-04-03T05:10:21;-0.70;99.90
54832;DHT22;40730;53.068;6.572;2023-04-03T05:12:47;-0.70;99.90
54832;DHT22;40730;53.068;6.572;2023-04-03T05:15:12;-0.80;99.90
54832;DHT22;40730;53.068;6.572;2023-04-03T05:17:38;-0.80;99.90
54832;DHT22;40730;53.068;6.572;2023-04-03T05:20:05;-0.80;99.90
54832;DHT22;40730;53.068;6.572;2023-04-03T05:22:31;-0.80;99.90
54832;DHT22;40730;53.068;6.572;2023-04-03T05:24:56;-0.80;99.90
54832;DHT22;40730;53.068;6.572;2023-04-03T05:27:22;-0.80;99.90
54832;DHT22;40730;53.068;6.572;2023-04-03T05:29:49;-0.70;99.90
54832;DHT22;40730;53.068;6.572;2023-04-03T05:32:15;-0.70;99.90
54832;DHT22;40730;53.068;6.572;2023-04-03T05:34:41;-0.70;99.90
54832;DHT22;40730;53.068;6.572;2023-04-03T05:37:07;-0.60;99.90
54832;DHT22;40730;53.068;6.572;2023-04-03T05:39:33;-0.60;99.90
54832;DHT22;40730;53.068;6.572;2023-04-03T05:41:59;-0.60;99.90
54832;DHT22;40730;53.068;6.572;2023-04-03T05:44:25;-0.50;99.90
54832;DHT22;40730;53.068;6.572;2023-04-03T05:46:50;-0.50;99.90
54832;DHT22;40730;53.068;6.572;2023-04-03T05:49:16;-0.50;99.90
54832;DHT22;40730;53.068;6.572;2023-04-03T05:51:42;-0.40;99.90
54832;DHT22;40730;53.068;6.572;2023-04-03T05:54:24;-0.40;99.90
54832;DHT22;40730;53.068;6.572;2023-04-03T05:56:51;-0.30;99.90
54832;DHT22;40730;53.068;6.572;2023-04-03T05:59:17;-0.20;99.90
54832;DHT22;40730;53.068;6.572;2023-04-03T06:01:43;-0.10;99.90
54832;DHT22;40730;53.068;6.572;2023-04-03T06:04:09;-0.10;99.90
54832;DHT22;40730;53.068;6.572;2023-04-03T06:06:45;0.00;99.90
54832;DHT22;40730;53.068;6.572;2023-04-03T06:09:11;-0.90;99.90
54832;DHT22;40730;53.068;6.572;2023-04-03T06:11:37;0.10;99.90
54832;DHT22;40730;53.068;6.572;2023-04-03T06:14:03;0.10;99.90
54832;DHT22;40730;53.068;6.572;2023-04-03T06:16:28;0.20;99.90
54832;DHT22;40730;53.068;6.572;2023-04-03T06:18:54;0.30;99.90
54832;DHT22;40730;53.068;6.572;2023-04-03T06:21:21;0.50;99.90
54832;DHT22;40730;53.068;6.572;2023-04-03T06:23:47;0.60;99.90
54832;DHT22;40730;53.068;6.572;2023-04-03T06:26:12;0.70;99.90
54832;DHT22;40730;53.068;6.572;2023-04-03T06:28:38;0.80;99.90
54832;DHT22;40730;53.068;6.572;2023-04-03T06:31:03;1.00;99.90
54832;DHT22;40730;53.068;6.572;2023-04-03T06:33:29;1.10;99.90
54832;DHT22;40730;53.068;6.572;2023-04-03T06:35:58;1.20;99.90
54832;DHT22;40730;53.068;6.572;2023-04-03T06:38:24;1.30;99.90
54832;DHT22;40730;53.068;6.572;2023-04-03T06:40:50;0.60;99.90
54832;DHT22;40730;53.068;6.572;2023-04-03T06:43:17;1.50;99.90
54832;DHT22;40730;53.068;6.572;2023-04-03T06:45:43;1.60;99.90
54832;DHT22;40730;53.068;6.572;2023-04-03T06:48:09;1.70;99.90
54832;DHT22;40730;53.068;6.572;2023-04-03T06:50:35;1.90;99.90
54832;DHT22;40730;53.068;6.572;2023-04-03T06:53:01;2.00;99.90
54832;DHT22;40730;53.068;6.572;2023-04-03T06:55:26;2.10;99.90
54832;DHT22;40730;53.068;6.572;2023-04-03T06:57:52;2.30;99.90
54832;DHT22;40730;53.068;6.572;2023-04-03T07:00:18;2.40;99.90
54832;DHT22;40730;53.068;6.572;2023-04-03T07:02:44;2.60;99.90
54832;DHT22;40730;53.068;6.572;2023-04-03T07:05:10;2.70;99.90
54832;DHT22;40730;53.068;6.572;2023-04-03T07:07:37;2.90;99.90
54832;DHT22;40730;53.068;6.572;2023-04-03T07:10:03;3.00;99.90
54832;DHT22;40730;53.068;6.572;2023-04-03T07:12:29;3.10;99.90
54832;DHT22;40730;53.068;6.572;2023-04-03T07:14:55;3.30;99.90
54832;DHT22;40730;53.068;6.572;2023-04-03T07:17:20;3.40;99.90
54832;DHT22;40730;53.068;6.572;2023-04-03T07:19:46;3.50;99.90
54832;DHT22;40730;53.068;6.572;2023-04-03T07:22:11;3.60;99.90
54832;DHT22;40730;53.068;6.572;2023-04-03T07:24:37;3.70;99.90
54832;DHT22;40730;53.068;6.572;2023-04-03T07:27:03;3.80;99.90
54832;DHT22;40730;53.068;6.572;2023-04-03T07:29:28;3.90;99.90
54832;DHT22;40730;53.068;6.572;2023-04-03T07:31:54;4.00;99.90
54832;DHT22;40730;53.068;6.572;2023-04-03T07:34:21;4.10;99.90
54832;DHT22;40730;53.068;6.572;2023-04-03T07:36:47;4.30;99.90
54832;DHT22;40730;53.068;6.572;2023-04-03T07:39:12;4.40;99.90
54832;DHT22;40730;53.068;6.572;2023-04-03T07:41:38;4.50;99.90
54832;DHT22;40730;53.068;6.572;2023-04-03T07:44:04;4.60;99.90
54832;DHT22;40730;53.068;6.572;2023-04-03T07:46:31;4.80;99.90
54832;DHT22;40730;53.068;6.572;2023-04-03T07:48:56;5.00;99.90
54832;DHT22;40730;53.068;6.572;2023-04-03T07:51:22;5.00;99.90
54832;DHT22;40730;53.068;6.572;2023-04-03T07:53:49;5.20;99.90
54832;DHT22;40730;53.068;6.572;2023-04-03T07:56:16;5.30;99.90
54832;DHT22;40730;53.068;6.572;2023-04-03T07:58:42;5.40;99.90
54832;DHT22;40730;53.068;6.572;2023-04-03T08:01:08;5.70;99.90
54832;DHT22;40730;53.068;6.572;2023-04-03T08:03:33;6.00;99.90
54832;DHT22;40730;53.068;6.572;2023-04-03T08:06:04;6.20;99.90
54832;DHT22;40730;53.068;6.572;2023-04-03T08:08:30;6.40;99.90
54832;DHT22;40730;53.068;6.572;2023-04-03T08:10:58;6.40;99.90
54832;DHT22;40730;53.068;6.572;2023-04-03T08:13:24;6.50;99.90
54832;DHT22;40730;53.068;6.572;2023-04-03T08:15:50;6.50;99.90
54832;DHT22;40730;53.068;6.572;2023-04-03T08:18:16;6.60;99.90
54832;DHT22;40730;53.068;6.572;2023-04-03T08:20:43;6.90;99.90
54832;DHT22;40730;53.068;6.572;2023-04-03T08:23:08;7.10;99.90
54832;DHT22;40730;53.068;6.572;2023-04-03T08:25:40;7.40;99.90
54832;DHT22;40730;53.068;6.572;2023-04-03T08:28:07;7.70;99.90
54832;DHT22;40730;53.068;6.572;2023-04-03T08:30:34;8.00;99.90
54832;DHT22;40730;53.068;6.572;2023-04-03T08:33:03;8.30;99.90
54832;DHT22;40730;53.068;6.572;2023-04-03T08:35:29;8.40;98.70
54832;DHT22;40730;53.068;6.572;2023-04-03T08:37:54;8.50;98.10
54832;DHT22;40730;53.068;6.572;2023-04-03T08:40:20;8.70;97.50
54832;DHT22;40730;53.068;6.572;2023-04-03T08:45:48;9.20;94.80
54832;DHT22;40730;53.068;6.572;2023-04-03T08:48:36;9.50;75.50
54832;DHT22;40730;53.068;6.572;2023-04-03T08:51:14;9.70;77.90
54832;DHT22;40730;53.068;6.572;2023-04-03T08:54:04;9.90;77.30
54832;DHT22;40730;53.068;6.572;2023-04-03T08:56:30;9.80;75.80
54832;DHT22;40730;53.068;6.572;2023-04-03T08:58:59;10.10;79.60
54832;DHT22;40730;53.068;6.572;2023-04-03T09:01:36;10.40;77.40
54832;DHT22;40730;53.068;6.572;2023-04-03T09:04:10;10.60;70.10
54832;DHT22;40730;53.068;6.572;2023-04-03T09:06:38;10.90;69.80
54832;DHT22;40730;53.068;6.572;2023-04-03T09:09:35;10.90;67.50
54832;DHT22;40730;53.068;6.572;2023-04-03T09:12:18;11.10;65.20
54832;DHT22;40730;53.068;6.572;2023-04-03T09:15:10;11.50;67.10
54832;DHT22;40730;53.068;6.572;2023-04-03T09:17:52;11.90;64.50
54832;DHT22;40730;53.068;6.572;2023-04-03T09:22:52;12.40;63.00
54832;DHT22;40730;53.068;6.572;2023-04-03T09:27:48;12.80;60.30
54832;DHT22;40730;53.068;6.572;2023-04-03T09:30:24;12.80;57.90
54832;DHT22;40730;53.068;6.572;2023-04-03T09:32:52;13.20;58.20
54832;DHT22;40730;53.068;6.572;2023-04-03T09:35:25;13.20;57.70
54832;DHT22;40730;53.068;6.572;2023-04-03T09:37:53;13.30;56.60
54832;DHT22;40730;53.068;6.572;2023-04-03T09:42:53;13.60;55.10
54832;DHT22;40730;53.068;6.572;2023-04-03T09:45:39;13.70;54.40
54832;DHT22;40730;53.068;6.572;2023-04-03T09:48:16;13.80;53.20
54832;DHT22;40730;53.068;6.572;2023-04-03T09:50:58;14.00;51.70
54832;DHT22;40730;53.068;6.572;2023-04-03T09:53:40;14.00;52.80
54832;DHT22;40730;53.068;6.572;2023-04-03T09:58:46;14.70;51.40
54832;DHT22;40730;53.068;6.572;2023-04-03T10:01:33;14.80;49.50
54832;DHT22;40730;53.068;6.572;2023-04-03T10:06:42;15.10;48.90
54832;DHT22;40730;53.068;6.572;2023-04-03T10:09:21;15.10;46.90
54832;DHT22;40730;53.068;6.572;2023-04-03T10:11:59;15.00;46.70
54832;DHT22;40730;53.068;6.572;2023-04-03T10:14:27;15.00;45.00
54832;DHT22;40730;53.068;6.572;2023-04-03T10:23:17;14.70;46.00
54832;DHT22;40730;53.068;6.572;2023-04-03T10:25:57;14.90;45.80
54832;DHT22;40730;53.068;6.572;2023-04-03T10:28:34;15.50;47.00
54832;DHT22;40730;53.068;6.572;2023-04-03T10:42:28;17.00;45.20
54832;DHT22;40730;53.068;6.572;2023-04-03T10:45:20;17.20;43.70
54832;DHT22;40730;53.068;6.572;2023-04-03T10:55:57;17.40;40.20
54832;DHT22;40730;53.068;6.572;2023-04-03T10:58:32;17.20;40.70
54832;DHT22;40730;53.068;6.572;2023-04-03T11:01:06;17.20;40.70
54832;DHT22;40730;53.068;6.572;2023-04-03T11:03:36;17.20;40.70
54832;DHT22;40730;53.068;6.572;2023-04-03T11:06:05;17.50;40.40
54832;DHT22;40730;53.068;6.572;2023-04-03T11:09:10;17.40;39.50
54832;DHT22;40730;53.068;6.572;2023-04-03T11:11:37;17.30;39.00
54832;DHT22;40730;53.068;6.572;2023-04-03T11:14:09;17.60;39.50
54832;DHT22;40730;53.068;6.572;2023-04-03T11:16:39;17.80;40.50
54832;DHT22;40730;53.068;6.572;2023-04-03T11:22:04;18.40;39.60
54832;DHT22;40730;53.068;6.572;2023-04-03T11:24:37;18.10;36.40
54832;DHT22;40730;53.068;6.572;2023-04-03T11:27:05;17.60;37.80
54832;DHT22;40730;53.068;6.572;2023-04-03T11:29:36;17.40;39.00
54832;DHT22;40730;53.068;6.572;2023-04-03T11:32:44;17.30;38.30
54832;DHT22;40730;53.068;6.572;2023-04-03T11:35:06;17.60;40.00
54832;DHT22;40730;53.068;6.572;2023-04-03T11:37:43;17.90;39.60
54832;DHT22;40730;53.068;6.572;2023-04-03T11:42:51;18.60;38.10
54832;DHT22;40730;53.068;6.572;2023-04-03T11:48:41;18.80;36.80
54832;DHT22;40730;53.068;6.572;2023-04-03T11:50:52;18.40;35.60
54832;DHT22;40730;53.068;6.572;2023-04-03T11:58:22;17.80;36.90
54832;DHT22;40730;53.068;6.572;2023-04-03T12:00:51;17.80;36.40
54832;DHT22;40730;53.068;6.572;2023-04-03T12:21:17;18.50;36.60
54832;DHT22;40730;53.068;6.572;2023-04-03T12:29:23;18.00;36.30
54832;DHT22;40730;53.068;6.572;2023-04-03T12:45:51;18.30;36.30
54832;DHT22;40730;53.068;6.572;2023-04-03T12:48:25;18.00;33.60
54832;DHT22;40730;53.068;6.572;2023-04-03T12:50:51;17.50;35.70
54832;DHT22;40730;53.068;6.572;2023-04-03T12:53:21;17.90;35.90
54832;DHT22;40730;53.068;6.572;2023-04-03T12:55:53;17.90;35.90
54832;DHT22;40730;53.068;6.572;2023-04-03T12:58:27;18.10;36.10
54832;DHT22;40730;53.068;6.572;2023-04-03T13:01:03;18.20;36.00
54832;DHT22;40730;53.068;6.572;2023-04-03T13:03:30;18.60;36.10
54832;DHT22;40730;53.068;6.572;2023-04-03T13:06:01;18.70;35.00
54832;DHT22;40730;53.068;6.572;2023-04-03T13:08:29;18.50;34.50
54832;DHT22;40730;53.068;6.572;2023-04-03T13:11:12;18.40;34.80
54832;DHT22;40730;53.068;6.572;2023-04-03T13:13:37;18.60;35.70
54832;DHT22;40730;53.068;6.572;2023-04-03T13:16:10;18.70;34.30
54832;DHT22;40730;53.068;6.572;2023-04-03T13:18:37;18.80;34.60
54832;DHT22;40730;53.068;6.572;2023-04-03T13:23:32;18.70;33.80
54832;DHT22;40730;53.068;6.572;2023-04-03T13:26:00;18.30;33.00
54832;DHT22;40730;53.068;6.572;2023-04-03T13:28:30;17.50;33.70
54832;DHT22;40730;53.068;6.572;2023-04-03T13:31:04;17.40;35.80
54832;DHT22;40730;53.068;6.572;2023-04-03T13:33:33;17.70;35.10
54832;DHT22;40730;53.068;6.572;2023-04-03T13:36:27;17.90;36.40
54832;DHT22;40730;53.068;6.572;2023-04-03T13:39:33;18.10;36.40
54832;DHT22;40730;53.068;6.572;2023-04-03T13:41:53;18.40;34.80
54832;DHT22;40730;53.068;6.572;2023-04-03T13:47:21;18.00;33.40
54832;DHT22;40730;53.068;6.572;2023-04-03T13:50:23;17.70;33.10
54832;DHT22;40730;53.068;6.572;2023-04-03T13:55:23;17.00;35.30
54832;DHT22;40730;53.068;6.572;2023-04-03T14:03:25;14.80;36.40
54832;DHT22;40730;53.068;6.572;2023-04-03T14:05:51;14.80;38.10
54832;DHT22;40730;53.068;6.572;2023-04-03T14:08:18;14.80;37.10
54832;DHT22;40730;53.068;6.572;2023-04-03T14:10:44;14.80;37.10
54832;DHT22;40730;53.068;6.572;2023-04-03T14:13:14;15.00;37.00
54832;DHT22;40730;53.068;6.572;2023-04-03T14:15:41;15.00;35.80
54832;DHT22;40730;53.068;6.572;2023-04-03T14:18:11;15.00;36.70
54832;DHT22;40730;53.068;6.572;2023-04-03T14:20:37;15.50;37.00
54832;DHT22;40730;53.068;6.572;2023-04-03T14:23:02;15.60;36.50
54832;DHT22;40730;53.068;6.572;2023-04-03T14:25:28;15.50;37.30
54832;DHT22;40730;53.068;6.572;2023-04-03T14:27:55;14.90;37.90
54832;DHT22;40730;53.068;6.572;2023-04-03T14:30:29;14.70;38.40
54832;DHT22;40730;53.068;6.572;2023-04-03T14:32:56;14.40;38.70
54832;DHT22;40730;53.068;6.572;2023-04-03T14:35:23;14.10;37.40
54832;DHT22;40730;53.068;6.572;2023-04-03T14:37:49;13.60;38.50
54832;DHT22;40730;53.068;6.572;2023-04-03T14:40:19;13.30;40.80
54832;DHT22;40730;53.068;6.572;2023-04-03T14:42:46;13.00;40.10
54832;DHT22;40730;53.068;6.572;2023-04-03T14:45:13;12.40;40.50
54832;DHT22;40730;53.068;6.572;2023-04-03T14:47:44;12.00;41.70
54832;DHT22;40730;53.068;6.572;2023-04-03T14:50:15;12.20;42.00
54832;DHT22;40730;53.068;6.572;2023-04-03T14:52:42;12.20;42.80
54832;DHT22;40730;53.068;6.572;2023-04-03T14:55:09;12.10;42.50
54832;DHT22;40730;53.068;6.572;2023-04-03T14:57:34;11.90;41.10
54832;DHT22;40730;53.068;6.572;2023-04-03T15:00:01;11.50;41.60
54832;DHT22;40730;53.068;6.572;2023-04-03T15:02:36;11.00;42.80
54832;DHT22;40730;53.068;6.572;2023-04-03T15:05:08;10.80;42.80
54832;DHT22;40730;53.068;6.572;2023-04-03T15:07:37;10.90;42.50
54832;DHT22;40730;53.068;6.572;2023-04-03T15:12:41;11.50;42.80
54832;DHT22;40730;53.068;6.572;2023-04-03T15:15:08;11.90;41.90
54832;DHT22;40730;53.068;6.572;2023-04-03T15:17:34;11.90;40.10
54832;DHT22;40730;53.068;6.572;2023-04-03T15:20:00;11.50;39.70
54832;DHT22;40730;53.068;6.572;2023-04-03T15:22:26;11.00;40.20
54832;DHT22;40730;53.068;6.572;2023-04-03T15:24:52;11.10;41.10
54832;DHT22;40730;53.068;6.572;2023-04-03T15:27:18;11.20;41.00
54832;DHT22;40730;53.068;6.572;2023-04-03T15:29:44;11.00;40.80
54832;DHT22;40730;53.068;6.572;2023-04-03T15:32:11;10.70;41.40
54832;DHT22;40730;53.068;6.572;2023-04-03T15:34:37;10.40;43.00
54832;DHT22;40730;53.068;6.572;2023-04-03T15:37:03;10.50;42.60
54832;DHT22;40730;53.068;6.572;2023-04-03T15:39:28;10.80;43.40
54832;DHT22;40730;53.068;6.572;2023-04-03T15:41:54;11.00;43.90
54832;DHT22;40730;53.068;6.572;2023-04-03T15:44:22;11.20;43.40
54832;DHT22;40730;53.068;6.572;2023-04-03T15:46:48;11.40;42.60
54832;DHT22;40730;53.068;6.572;2023-04-03T15:49:17;11.60;42.70
54832;DHT22;40730;53.068;6.572;2023-04-03T15:51:43;11.60;42.50
54832;DHT22;40730;53.068;6.572;2023-04-03T15:54:09;11.40;42.70
54832;DHT22;40730;53.068;6.572;2023-04-03T15:56:35;11.80;42.70
54832;DHT22;40730;53.068;6.572;2023-04-03T15:59:01;11.80;42.20
54832;DHT22;40730;53.068;6.572;2023-04-03T16:01:27;11.80;43.20
54832;DHT22;40730;53.068;6.572;2023-04-03T16:03:53;11.70;42.70
54832;DHT22;40730;53.068;6.572;2023-04-03T16:06:19;11.80;43.70
54832;DHT22;40730;53.068;6.572;2023-04-03T16:08:46;12.10;42.80
54832;DHT22;40730;53.068;6.572;2023-04-03T16:11:12;12.40;43.00
54832;DHT22;40730;53.068;6.572;2023-04-03T16:13:38;11.40;43.30
54832;DHT22;40730;53.068;6.572;2023-04-03T16:16:04;10.90;44.80
54832;DHT22;40730;53.068;6.572;2023-04-03T16:18:31;10.70;45.60
54832;DHT22;40730;53.068;6.572;2023-04-03T16:20:57;10.30;45.70
54832;DHT22;40730;53.068;6.572;2023-04-03T16:23:23;10.10;45.50
54832;DHT22;40730;53.068;6.572;2023-04-03T16:25:49;9.90;46.30
54832;DHT22;40730;53.068;6.572;2023-04-03T16:28:15;9.90;45.10
54832;DHT22;40730;53.068;6.572;2023-04-03T16:30:44;9.80;45.40
54832;DHT22;40730;53.068;6.572;2023-04-03T16:33:11;9.90;45.40
54832;DHT22;40730;53.068;6.572;2023-04-03T16:35:42;9.70;45.80
54832;DHT22;40730;53.068;6.572;2023-04-03T16:38:08;9.40;45.90
54832;DHT22;40730;53.068;6.572;2023-04-03T16:40:34;9.10;46.00
54832;DHT22;40730;53.068;6.572;2023-04-03T16:43:03;8.90;46.40
54832;DHT22;40730;53.068;6.572;2023-04-03T16:45:28;9.00;46.60
54832;DHT22;40730;53.068;6.572;2023-04-03T16:47:54;8.90;46.60
54832;DHT22;40730;53.068;6.572;2023-04-03T16:50:20;8.90;46.70
54832;DHT22;40730;53.068;6.572;2023-04-03T16:52:46;8.90;46.10
54832;DHT22;40730;53.068;6.572;2023-04-03T16:55:12;8.80;46.50
54832;DHT22;40730;53.068;6.572;2023-04-03T16:57:37;8.60;46.90
54832;DHT22;40730;53.068;6.572;2023-04-03T17:00:04;8.40;47.70
54832;DHT22;40730;53.068;6.572;2023-04-03T17:02:31;8.20;48.20
54832;DHT22;40730;53.068;6.572;2023-04-03T17:04:57;8.10;48.50
54832;DHT22;40730;53.068;6.572;2023-04-03T17:07:23;8.00;49.10
54832;DHT22;40730;53.068;6.572;2023-04-03T17:09:49;7.90;49.30
54832;DHT22;40730;53.068;6.572;2023-04-03T17:12:16;7.80;49.30
54832;DHT22;40730;53.068;6.572;2023-04-03T17:14:42;7.70;49.70
54832;DHT22;40730;53.068;6.572;2023-04-03T17:17:08;7.60;49.60
54832;DHT22;40730;53.068;6.572;2023-04-03T17:19:36;7.60;50.00
54832;DHT22;40730;53.068;6.572;2023-04-03T17:22:02;7.50;50.60
54832;DHT22;40730;53.068;6.572;2023-04-03T17:24:28;7.70;50.40
54832;DHT22;40730;53.068;6.572;2023-04-03T17:26:54;7.80;49.80
54832;DHT22;40730;53.068;6.572;2023-04-03T17:29:19;7.70;49.50
54832;DHT22;40730;53.068;6.572;2023-04-03T17:31:45;7.50;50.30
54832;DHT22;40730;53.068;6.572;2023-04-03T17:34:10;7.30;50.50
54832;DHT22;40730;53.068;6.572;2023-04-03T17:36:37;7.20;50.40
54832;DHT22;40730;53.068;6.572;2023-04-03T17:49:07;7.00;53.80
54832;DHT22;40730;53.068;6.572;2023-04-03T17:51:41;6.70;54.60
54832;DHT22;40730;53.068;6.572;2023-04-03T17:54:09;6.60;55.40